sensor_id;sensor_type;location;lat;lon;timestamp;P1;durP1;ratioP1;P2;durP2;ratioP2
35691;SDS011;26978;44.830;-0.674;2023-04-06T00:00:52;12.85;;;4.72;;
35691;SDS011;26978;44.830;-0.674;2023-04-06T00:03:17;14.68;;;5.22;;
35691;SDS011;26978;44.830;-0.674;2023-04-06T00:05:43;9.48;;;5.18;;
35691;SDS011;26978;44.830;-0.674;2023-04-06T00:08:10;12.27;;;5.85;;
35691;SDS011;26978;44.830;-0.674;2023-04-06T00:10:36;7.70;;;4.95;;
35691;SDS011;26978;44.830;-0.674;2023-04-06T00:13:01;11.85;;;5.15;;
35691;SDS011;26978;44.830;-0.674;2023-04-06T00:15:27;10.18;;;5.40;;
35691;SDS011;26978;44.830;-0.674;2023-04-06T00:17:53;10.82;;;4.90;;
35691;SDS011;26978;44.830;-0.674;2023-04-06T00:20:18;12.20;;;5.40;;
35691;SDS011;26978;44.830;-0.674;2023-04-06T00:22:44;18.27;;;5.82;;
35691;SDS011;26978;44.830;-0.674;2023-04-06T00:25:10;10.73;;;5.68;;
35691;SDS011;26978;44.830;-0.674;2023-04-06T00:27:36;14.10;;;6.43;;
35691;SDS011;26978;44.830;-0.674;2023-04-06T00:30:07;12.57;;;5.85;;
35691;SDS011;26978;44.830;-0.674;2023-04-06T00:32:34;12.75;;;6.53;;
35691;SDS011;26978;44.830;-0.674;2023-04-06T00:35:01;14.88;;;6.80;;
35691;SDS011;26978;44.830;-0.674;2023-04-06T00:37:28;22.80;;;6.63;;
35691;SDS011;26978;44.830;-0.674;2023-04-06T00:39:53;16.67;;;6.60;;
35691;SDS011;26978;44.830;-0.674;2023-04-06T00:42:19;19.38;;;7.47;;
35691;SDS011;26978;44.830;-0.674;2023-04-06T00:44:58;11.80;;;6.90;;
35691;SDS011;26978;44.830;-0.674;2023-04-06T00:47:24;13.48;;;6.43;;
35691;SDS011;26978;44.830;-0.674;2023-04-06T00:49:51;15.52;;;7.40;;
35691;SDS011;26978;44.830;-0.674;2023-04-06T00:52:17;12.40;;;6.78;;
35691;SDS011;26978;44.830;-0.674;2023-04-06T00:54:43;14.40;;;6.60;;
35691;SDS011;26978;44.830;-0.674;2023-04-06T00:57:10;10.30;;;6.90;;
35691;SDS011;26978;44.830;-0.674;2023-04-06T00:59:38;11.60;;;6.60;;
35691;SDS011;26978;44.830;-0.674;2023-04-06T01:02:05;13.35;;;6.18;;
35691;SDS011;26978;44.830;-0.674;2023-04-06T01:04:31;15.98;;;6.50;;
35691;SDS011;26978;44.830;-0.674;2023-04-06T01:06:58;12.63;;;7.10;;
35691;SDS011;26978;44.830;-0.674;2023-04-06T01:09:23;15.43;;;7.07;;
35691;SDS011;26978;44.830;-0.674;2023-04-06T01:11:49;9.50;;;6.40;;
35691;SDS011;26978;44.830;-0.674;2023-04-06T01:14:15;13.10;;;7.72;;
35691;SDS011;26978;44.830;-0.674;2023-04-06T01:16:40;11.30;;;7.05;;
35691;SDS011;26978;44.830;-0.674;2023-04-06T01:19:10;15.88;;;7.38;;
35691;SDS011;26978;44.830;-0.674;2023-04-06T01:21:37;15.25;;;7.40;;
35691;SDS011;26978;44.830;-0.674;2023-04-06T01:24:04;16.08;;;8.38;;
35691;SDS011;26978;44.830;-0.674;2023-04-06T01:26:31;18.48;;;9.32;;
35691;SDS011;26978;44.830;-0.674;2023-04-06T01:28:57;24.77;;;8.27;;
35691;SDS011;26978;44.830;-0.674;2023-04-06T01:31:23;14.45;;;8.23;;
35691;SDS011;26978;44.830;-0.674;2023-04-06T01:33:49;14.10;;;8.55;;
35691;SDS011;26978;44.830;-0.674;2023-04-06T01:36:15;14.48;;;8.18;;
35691;SDS011;26978;44.830;-0.674;2023-04-06T01:38:41;15.13;;;7.90;;
35691;SDS011;26978;44.830;-0.674;2023-04-06T01:41:07;15.10;;;8.82;;
35691;SDS011;26978;44.830;-0.674;2023-04-06T01:43:33;24.40;;;14.93;;
35691;SDS011;26978;44.830;-0.674;2023-04-06T01:45:59;29.92;;;18.00;;
35691;SDS011;26978;44.830;-0.674;2023-04-06T01:48:26;34.55;;;23.15;;
35691;SDS011;26978;44.830;-0.674;2023-04-06T01:50:52;33.40;;;24.05;;
35691;SDS011;26978;44.830;-0.674;2023-04-06T01:53:18;28.77;;;18.77;;
35691;SDS011;26978;44.830;-0.674;2023-04-06T01:55:43;28.33;;;18.80;;
35691;SDS011;26978;44.830;-0.674;2023-04-06T01:58:09;32.90;;;18.70;;
35691;SDS011;26978;44.830;-0.674;2023-04-06T02:00:35;30.27;;;21.23;;
35691;SDS011;26978;44.830;-0.674;2023-04-06T02:03:01;32.70;;;21.00;;
35691;SDS011;26978;44.830;-0.674;2023-04-06T02:05:27;31.73;;;22.13;;
35691;SDS011;26978;44.830;-0.674;2023-04-06T02:07:54;20.50;;;16.25;;
35691;SDS011;26978;44.830;-0.674;2023-04-06T02:10:20;19.23;;;12.73;;
35691;SDS011;26978;44.830;-0.674;2023-04-06T02:12:46;12.40;;;9.35;;
35691;SDS011;26978;44.830;-0.674;2023-04-06T02:15:11;12.68;;;8.32;;
35691;SDS011;26978;44.830;-0.674;2023-04-06T02:17:38;16.10;;;8.45;;
35691;SDS011;26978;44.830;-0.674;2023-04-06T02:20:04;12.82;;;7.60;;
35691;SDS011;26978;44.830;-0.674;2023-04-06T02:22:31;16.05;;;8.48;;
35691;SDS011;26978;44.830;-0.674;2023-04-06T02:24:56;20.27;;;8.00;;
35691;SDS011;26978;44.830;-0.674;2023-04-06T02:27:22;12.43;;;7.38;;
35691;SDS011;26978;44.830;-0.674;2023-04-06T02:29:48;10.80;;;8.10;;
35691;SDS011;26978;44.830;-0.674;2023-04-06T02:32:13;12.25;;;7.30;;
35691;SDS011;26978;44.830;-0.674;2023-04-06T02:34:39;17.63;;;8.20;;
35691;SDS011;26978;44.830;-0.674;2023-04-06T02:37:06;15.40;;;7.28;;
35691;SDS011;26978;44.830;-0.674;2023-04-06T02:39:32;15.85;;;8.38;;
35691;SDS011;26978;44.830;-0.674;2023-04-06T02:41:57;18.35;;;8.10;;
35691;SDS011;26978;44.830;-0.674;2023-04-06T02:44:23;17.88;;;8.75;;
35691;SDS011;26978;44.830;-0.674;2023-04-06T02:46:48;14.85;;;8.73;;
35691;SDS011;26978;44.830;-0.674;2023-04-06T02:49:15;11.95;;;7.80;;
35691;SDS011;26978;44.830;-0.674;2023-04-06T02:51:41;11.30;;;8.07;;
35691;SDS011;26978;44.830;-0.674;2023-04-06T02:54:06;16.45;;;8.77;;
35691;SDS011;26978;44.830;-0.674;2023-04-06T02:56:32;15.85;;;8.43;;
35691;SDS011;26978;44.830;-0.674;2023-04-06T02:58:58;17.27;;;8.73;;
35691;SDS011;26978;44.830;-0.674;2023-04-06T03:01:23;21.17;;;8.10;;
35691;SDS011;26978;44.830;-0.674;2023-04-06T03:03:49;19.45;;;7.82;;
35691;SDS011;26978;44.830;-0.674;2023-04-06T03:06:15;16.70;;;8.32;;
35691;SDS011;26978;44.830;-0.674;2023-04-06T03:08:40;17.33;;;8.88;;
35691;SDS011;26978;44.830;-0.674;2023-04-06T03:11:06;26.15;;;9.35;;
35691;SDS011;26978;44.830;-0.674;2023-04-06T03:13:32;19.42;;;7.65;;
35691;SDS011;26978;44.830;-0.674;2023-04-06T03:15:57;23.70;;;8.73;;
35691;SDS011;26978;44.830;-0.674;2023-04-06T03:18:23;17.27;;;8.40;;
35691;SDS011;26978;44.830;-0.674;2023-04-06T03:20:50;16.77;;;8.73;;
35691;SDS011;26978;44.830;-0.674;2023-04-06T03:23:18;28.13;;;9.10;;
35691;SDS011;26978;44.830;-0.674;2023-04-06T03:25:45;13.85;;;8.93;;
35691;SDS011;26978;44.830;-0.674;2023-04-06T03:28:11;15.45;;;8.02;;
35691;SDS011;26978;44.830;-0.674;2023-04-06T03:30:37;20.63;;;8.20;;
35691;SDS011;26978;44.830;-0.674;2023-04-06T03:33:03;20.42;;;8.73;;
35691;SDS011;26978;44.830;-0.674;2023-04-06T03:35:28;10.98;;;7.38;;
35691;SDS011;26978;44.830;-0.674;2023-04-06T03:37:54;16.05;;;8.13;;
35691;SDS011;26978;44.830;-0.674;2023-04-06T03:40:20;12.95;;;7.35;;
35691;SDS011;26978;44.830;-0.674;2023-04-06T03:42:45;13.95;;;7.90;;
35691;SDS011;26978;44.830;-0.674;2023-04-06T03:45:11;21.58;;;7.80;;
35691;SDS011;26978;44.830;-0.674;2023-04-06T03:47:40;22.27;;;8.43;;
35691;SDS011;26978;44.830;-0.674;2023-04-06T03:50:06;18.02;;;8.32;;
35691;SDS011;26978;44.830;-0.674;2023-04-06T03:52:31;14.07;;;8.80;;
35691;SDS011;26978;44.830;-0.674;2023-04-06T03:54:57;21.15;;;8.95;;
35691;SDS011;26978;44.830;-0.674;2023-04-06T03:57:23;22.98;;;8.77;;
35691;SDS011;26978;44.830;-0.674;2023-04-06T03:59:48;13.32;;;7.22;;
35691;SDS011;26978;44.830;-0.674;2023-04-06T04:02:14;14.85;;;8.07;;
35691;SDS011;26978;44.830;-0.674;2023-04-06T04:04:40;18.35;;;7.95;;
35691;SDS011;26978;44.830;-0.674;2023-04-06T04:07:05;17.00;;;9.13;;
35691;SDS011;26978;44.830;-0.674;2023-04-06T04:09:31;23.13;;;9.18;;
35691;SDS011;26978;44.830;-0.674;2023-04-06T04:11:57;16.33;;;7.85;;
35691;SDS011;26978;44.830;-0.674;2023-04-06T04:14:22;22.23;;;7.63;;
35691;SDS011;26978;44.830;-0.674;2023-04-06T04:16:48;14.98;;;7.93;;
35691;SDS011;26978;44.830;-0.674;2023-04-06T04:19:13;17.48;;;7.60;;
35691;SDS011;26978;44.830;-0.674;2023-04-06T04:21:43;14.98;;;7.43;;
35691;SDS011;26978;44.830;-0.674;2023-04-06T04:24:10;19.10;;;8.00;;
35691;SDS011;26978;44.830;-0.674;2023-04-06T04:26:35;12.98;;;7.40;;
35691;SDS011;26978;44.830;-0.674;2023-04-06T04:29:02;18.77;;;8.60;;
35691;SDS011;26978;44.830;-0.674;2023-04-06T04:31:27;18.92;;;7.93;;
35691;SDS011;26978;44.830;-0.674;2023-04-06T04:33:53;17.77;;;8.52;;
35691;SDS011;26978;44.830;-0.674;2023-04-06T04:36:19;17.98;;;8.55;;
35691;SDS011;26978;44.830;-0.674;2023-04-06T04:38:44;19.73;;;9.13;;
35691;SDS011;26978;44.830;-0.674;2023-04-06T04:41:10;18.52;;;9.25;;
35691;SDS011;26978;44.830;-0.674;2023-04-06T04:43:36;17.10;;;8.45;;
35691;SDS011;26978;44.830;-0.674;2023-04-06T04:46:01;17.33;;;9.38;;
35691;SDS011;26978;44.830;-0.674;2023-04-06T04:48:28;17.33;;;9.30;;
35691;SDS011;26978;44.830;-0.674;2023-04-06T04:50:54;18.95;;;8.52;;
35691;SDS011;26978;44.830;-0.674;2023-04-06T04:53:20;17.52;;;8.68;;
35691;SDS011;26978;44.830;-0.674;2023-04-06T04:55:45;15.27;;;9.38;;
35691;SDS011;26978;44.830;-0.674;2023-04-06T04:58:11;14.80;;;8.70;;
35691;SDS011;26978;44.830;-0.674;2023-04-06T05:00:41;11.60;;;8.25;;
35691;SDS011;26978;44.830;-0.674;2023-04-06T05:03:11;17.42;;;8.98;;
35691;SDS011;26978;44.830;-0.674;2023-04-06T05:05:43;15.85;;;8.82;;
35691;SDS011;26978;44.830;-0.674;2023-04-06T05:08:09;19.67;;;10.18;;
35691;SDS011;26978;44.830;-0.674;2023-04-06T05:10:34;20.15;;;10.32;;
35691;SDS011;26978;44.830;-0.674;2023-04-06T05:13:00;29.77;;;10.70;;
35691;SDS011;26978;44.830;-0.674;2023-04-06T05:15:26;23.25;;;10.43;;
35691;SDS011;26978;44.830;-0.674;2023-04-06T05:17:52;20.98;;;9.50;;
35691;SDS011;26978;44.830;-0.674;2023-04-06T05:20:17;18.85;;;9.20;;
35691;SDS011;26978;44.830;-0.674;2023-04-06T05:22:43;27.13;;;9.27;;
35691;SDS011;26978;44.830;-0.674;2023-04-06T05:25:09;22.15;;;9.15;;
35691;SDS011;26978;44.830;-0.674;2023-04-06T05:27:34;21.10;;;10.18;;
35691;SDS011;26978;44.830;-0.674;2023-04-06T05:30:00;20.48;;;8.85;;
35691;SDS011;26978;44.830;-0.674;2023-04-06T05:32:26;19.25;;;8.60;;
35691;SDS011;26978;44.830;-0.674;2023-04-06T05:34:52;14.90;;;8.75;;
35691;SDS011;26978;44.830;-0.674;2023-04-06T05:37:18;20.42;;;9.23;;
35691;SDS011;26978;44.830;-0.674;2023-04-06T05:39:44;19.35;;;9.88;;
35691;SDS011;26978;44.830;-0.674;2023-04-06T05:42:10;20.60;;;10.00;;
35691;SDS011;26978;44.830;-0.674;2023-04-06T05:44:36;17.13;;;10.00;;
35691;SDS011;26978;44.830;-0.674;2023-04-06T05:47:02;23.75;;;10.35;;
35691;SDS011;26978;44.830;-0.674;2023-04-06T05:49:28;19.80;;;10.20;;
35691;SDS011;26978;44.830;-0.674;2023-04-06T05:51:54;19.42;;;9.10;;
35691;SDS011;26978;44.830;-0.674;2023-04-06T05:54:20;21.05;;;9.40;;
35691;SDS011;26978;44.830;-0.674;2023-04-06T05:56:45;25.83;;;10.50;;
35691;SDS011;26978;44.830;-0.674;2023-04-06T05:59:11;21.88;;;9.55;;
35691;SDS011;26978;44.830;-0.674;2023-04-06T06:01:37;25.40;;;10.40;;
35691;SDS011;26978;44.830;-0.674;2023-04-06T06:04:02;17.77;;;9.35;;
35691;SDS011;26978;44.830;-0.674;2023-04-06T06:06:28;14.60;;;8.88;;
35691;SDS011;26978;44.830;-0.674;2023-04-06T06:08:57;20.33;;;9.27;;
35691;SDS011;26978;44.830;-0.674;2023-04-06T06:11:26;23.42;;;10.73;;
35691;SDS011;26978;44.830;-0.674;2023-04-06T06:13:52;17.15;;;9.43;;
35691;SDS011;26978;44.830;-0.674;2023-04-06T06:16:18;26.83;;;9.90;;
35691;SDS011;26978;44.830;-0.674;2023-04-06T06:18:44;17.23;;;9.02;;
35691;SDS011;26978;44.830;-0.674;2023-04-06T06:21:10;26.13;;;9.98;;
35691;SDS011;26978;44.830;-0.674;2023-04-06T06:23:37;22.70;;;9.23;;
35691;SDS011;26978;44.830;-0.674;2023-04-06T06:26:03;27.02;;;10.68;;
35691;SDS011;26978;44.830;-0.674;2023-04-06T06:28:29;23.35;;;10.07;;
35691;SDS011;26978;44.830;-0.674;2023-04-06T06:30:55;21.73;;;9.48;;
35691;SDS011;26978;44.830;-0.674;2023-04-06T06:33:21;21.67;;;10.60;;
35691;SDS011;26978;44.830;-0.674;2023-04-06T06:35:47;15.13;;;8.55;;
35691;SDS011;26978;44.830;-0.674;2023-04-06T06:38:12;23.25;;;9.85;;
35691;SDS011;26978;44.830;-0.674;2023-04-06T06:40:39;26.05;;;9.25;;
35691;SDS011;26978;44.830;-0.674;2023-04-06T06:43:05;18.50;;;8.32;;
35691;SDS011;26978;44.830;-0.674;2023-04-06T06:45:31;22.17;;;9.70;;
35691;SDS011;26978;44.830;-0.674;2023-04-06T06:47:56;16.08;;;9.13;;
35691;SDS011;26978;44.830;-0.674;2023-04-06T06:50:22;19.77;;;9.95;;
35691;SDS011;26978;44.830;-0.674;2023-04-06T06:52:48;21.13;;;9.00;;
35691;SDS011;26978;44.830;-0.674;2023-04-06T06:55:13;21.23;;;9.93;;
35691;SDS011;26978;44.830;-0.674;2023-04-06T06:57:40;22.67;;;9.48;;
35691;SDS011;26978;44.830;-0.674;2023-04-06T07:00:07;14.82;;;8.77;;
35691;SDS011;26978;44.830;-0.674;2023-04-06T07:02:34;27.05;;;10.13;;
35691;SDS011;26978;44.830;-0.674;2023-04-06T07:05:01;17.58;;;9.13;;
35691;SDS011;26978;44.830;-0.674;2023-04-06T07:07:27;18.83;;;9.10;;
35691;SDS011;26978;44.830;-0.674;2023-04-06T07:09:52;21.10;;;9.27;;
35691;SDS011;26978;44.830;-0.674;2023-04-06T07:12:18;31.08;;;11.43;;
35691;SDS011;26978;44.830;-0.674;2023-04-06T07:14:43;21.13;;;10.40;;
35691;SDS011;26978;44.830;-0.674;2023-04-06T07:17:09;27.00;;;11.20;;
35691;SDS011;26978;44.830;-0.674;2023-04-06T07:19:36;21.50;;;10.10;;
35691;SDS011;26978;44.830;-0.674;2023-04-06T07:22:01;25.90;;;10.40;;
35691;SDS011;26978;44.830;-0.674;2023-04-06T07:24:28;15.20;;;9.85;;
35691;SDS011;26978;44.830;-0.674;2023-04-06T07:26:54;19.48;;;9.80;;
35691;SDS011;26978;44.830;-0.674;2023-04-06T07:29:21;18.35;;;8.88;;
35691;SDS011;26978;44.830;-0.674;2023-04-06T07:31:48;17.65;;;9.13;;
35691;SDS011;26978;44.830;-0.674;2023-04-06T07:34:14;18.60;;;9.50;;
35691;SDS011;26978;44.830;-0.674;2023-04-06T07:36:40;19.20;;;9.20;;
35691;SDS011;26978;44.830;-0.674;2023-04-06T07:39:06;21.25;;;10.63;;
35691;SDS011;26978;44.830;-0.674;2023-04-06T07:41:32;22.13;;;9.43;;
35691;SDS011;26978;44.830;-0.674;2023-04-06T07:43:57;18.88;;;9.13;;
35691;SDS011;26978;44.830;-0.674;2023-04-06T07:46:23;21.05;;;9.60;;
35691;SDS011;26978;44.830;-0.674;2023-04-06T07:48:50;15.30;;;9.18;;
35691;SDS011;26978;44.830;-0.674;2023-04-06T07:51:16;17.80;;;9.02;;
35691;SDS011;26978;44.830;-0.674;2023-04-06T07:53:43;17.98;;;9.73;;
35691;SDS011;26978;44.830;-0.674;2023-04-06T07:56:09;21.67;;;9.50;;
35691;SDS011;26978;44.830;-0.674;2023-04-06T07:58:35;24.05;;;9.73;;
35691;SDS011;26978;44.830;-0.674;2023-04-06T08:01:01;18.92;;;8.80;;
35691;SDS011;26978;44.830;-0.674;2023-04-06T08:03:27;24.15;;;9.18;;
35691;SDS011;26978;44.830;-0.674;2023-04-06T08:05:52;15.27;;;9.23;;
35691;SDS011;26978;44.830;-0.674;2023-04-06T08:08:18;27.80;;;10.10;;
35691;SDS011;26978;44.830;-0.674;2023-04-06T08:10:46;27.55;;;9.90;;
35691;SDS011;26978;44.830;-0.674;2023-04-06T08:13:13;18.80;;;9.75;;
35691;SDS011;26978;44.830;-0.674;2023-04-06T08:15:39;20.52;;;9.80;;
35691;SDS011;26978;44.830;-0.674;2023-04-06T08:18:05;21.05;;;9.48;;
35691;SDS011;26978;44.830;-0.674;2023-04-06T08:20:30;16.85;;;9.05;;
35691;SDS011;26978;44.830;-0.674;2023-04-06T08:22:56;24.08;;;9.18;;
35691;SDS011;26978;44.830;-0.674;2023-04-06T08:25:22;18.85;;;9.23;;
35691;SDS011;26978;44.830;-0.674;2023-04-06T08:27:48;18.25;;;9.30;;
35691;SDS011;26978;44.830;-0.674;2023-04-06T08:30:13;17.48;;;9.60;;
35691;SDS011;26978;44.830;-0.674;2023-04-06T08:32:40;19.98;;;8.93;;
35691;SDS011;26978;44.830;-0.674;2023-04-06T08:35:07;21.42;;;8.73;;
35691;SDS011;26978;44.830;-0.674;2023-04-06T08:37:33;19.02;;;8.48;;
35691;SDS011;26978;44.830;-0.674;2023-04-06T08:39:58;20.88;;;7.72;;
35691;SDS011;26978;44.830;-0.674;2023-04-06T08:42:25;22.42;;;8.10;;
35691;SDS011;26978;44.830;-0.674;2023-04-06T08:44:51;17.00;;;8.13;;
35691;SDS011;26978;44.830;-0.674;2023-04-06T08:47:18;13.65;;;6.85;;
35691;SDS011;26978;44.830;-0.674;2023-04-06T08:49:45;16.75;;;6.68;;
35691;SDS011;26978;44.830;-0.674;2023-04-06T08:52:11;15.60;;;5.95;;
35691;SDS011;26978;44.830;-0.674;2023-04-06T08:54:37;16.50;;;5.55;;
35691;SDS011;26978;44.830;-0.674;2023-04-06T08:57:04;12.55;;;4.95;;
35691;SDS011;26978;44.830;-0.674;2023-04-06T08:59:31;16.45;;;5.47;;
35691;SDS011;26978;44.830;-0.674;2023-04-06T09:01:57;12.05;;;5.25;;
35691;SDS011;26978;44.830;-0.674;2023-04-06T09:04:26;8.63;;;4.10;;
35691;SDS011;26978;44.830;-0.674;2023-04-06T09:06:52;7.70;;;3.92;;
35691;SDS011;26978;44.830;-0.674;2023-04-06T09:09:18;8.85;;;4.38;;
35691;SDS011;26978;44.830;-0.674;2023-04-06T09:11:47;9.82;;;3.97;;
35691;SDS011;26978;44.830;-0.674;2023-04-06T09:14:14;10.15;;;3.45;;
35691;SDS011;26978;44.830;-0.674;2023-04-06T09:16:42;7.28;;;3.85;;
35691;SDS011;26978;44.830;-0.674;2023-04-06T09:19:09;8.60;;;3.80;;
35691;SDS011;26978;44.830;-0.674;2023-04-06T09:21:35;10.02;;;3.10;;
35691;SDS011;26978;44.830;-0.674;2023-04-06T09:24:02;7.97;;;3.33;;
35691;SDS011;26978;44.830;-0.674;2023-04-06T09:26:28;12.82;;;3.53;;
35691;SDS011;26978;44.830;-0.674;2023-04-06T09:28:55;12.20;;;3.83;;
35691;SDS011;26978;44.830;-0.674;2023-04-06T09:31:22;15.93;;;3.10;;
35691;SDS011;26978;44.830;-0.674;2023-04-06T09:33:53;16.52;;;3.15;;
35691;SDS011;26978;44.830;-0.674;2023-04-06T09:36:19;6.72;;;2.90;;
35691;SDS011;26978;44.830;-0.674;2023-04-06T09:38:52;6.95;;;2.70;;
35691;SDS011;26978;44.830;-0.674;2023-04-06T09:41:22;8.38;;;3.03;;
35691;SDS011;26978;44.830;-0.674;2023-04-06T09:46:32;4.90;;;2.47;;
35691;SDS011;26978;44.830;-0.674;2023-04-06T09:49:02;8.52;;;2.80;;
35691;SDS011;26978;44.830;-0.674;2023-04-06T09:51:31;6.07;;;2.70;;
35691;SDS011;26978;44.830;-0.674;2023-04-06T09:54:08;5.68;;;2.60;;
35691;SDS011;26978;44.830;-0.674;2023-04-06T09:56:43;6.82;;;2.40;;
35691;SDS011;26978;44.830;-0.674;2023-04-06T09:59:18;5.95;;;2.15;;
35691;SDS011;26978;44.830;-0.674;2023-04-06T10:01:51;6.50;;;2.40;;
35691;SDS011;26978;44.830;-0.674;2023-04-06T10:06:55;8.43;;;1.92;;
35691;SDS011;26978;44.830;-0.674;2023-04-06T10:09:24;6.63;;;2.20;;
35691;SDS011;26978;44.830;-0.674;2023-04-06T10:11:53;5.25;;;2.03;;
35691;SDS011;26978;44.830;-0.674;2023-04-06T10:14:19;5.05;;;2.25;;
35691;SDS011;26978;44.830;-0.674;2023-04-06T10:16:45;4.85;;;2.72;;
35691;SDS011;26978;44.830;-0.674;2023-04-06T10:19:18;4.45;;;2.17;;
35691;SDS011;26978;44.830;-0.674;2023-04-06T10:21:50;6.25;;;1.80;;
35691;SDS011;26978;44.830;-0.674;2023-04-06T10:24:18;5.00;;;2.13;;
35691;SDS011;26978;44.830;-0.674;2023-04-06T10:26:45;4.55;;;2.10;;
35691;SDS011;26978;44.830;-0.674;2023-04-06T10:29:41;3.53;;;1.77;;
35691;SDS011;26978;44.830;-0.674;2023-04-06T10:32:11;2.63;;;1.60;;
35691;SDS011;26978;44.830;-0.674;2023-04-06T10:34:37;5.13;;;1.73;;
35691;SDS011;26978;44.830;-0.674;2023-04-06T10:37:12;3.15;;;1.40;;
35691;SDS011;26978;44.830;-0.674;2023-04-06T10:39:52;2.65;;;1.73;;
35691;SDS011;26978;44.830;-0.674;2023-04-06T10:42:35;8.70;;;1.65;;
35691;SDS011;26978;44.830;-0.674;2023-04-06T10:45:05;4.15;;;1.63;;
35691;SDS011;26978;44.830;-0.674;2023-04-06T10:47:39;3.63;;;1.60;;
35691;SDS011;26978;44.830;-0.674;2023-04-06T10:50:05;3.08;;;1.60;;
35691;SDS011;26978;44.830;-0.674;2023-04-06T10:52:31;2.35;;;1.45;;
35691;SDS011;26978;44.830;-0.674;2023-04-06T10:55:05;2.90;;;1.40;;
35691;SDS011;26978;44.830;-0.674;2023-04-06T10:57:33;3.92;;;1.50;;
35691;SDS011;26978;44.830;-0.674;2023-04-06T11:00:01;2.63;;;1.10;;
35691;SDS011;26978;44.830;-0.674;2023-04-06T11:02:29;2.67;;;1.20;;
35691;SDS011;26978;44.830;-0.674;2023-04-06T11:05:06;4.07;;;1.60;;
35691;SDS011;26978;44.830;-0.674;2023-04-06T11:07:32;3.25;;;1.25;;
35691;SDS011;26978;44.830;-0.674;2023-04-06T11:09:58;3.13;;;1.55;;
35691;SDS011;26978;44.830;-0.674;2023-04-06T11:12:24;3.40;;;1.50;;
35691;SDS011;26978;44.830;-0.674;2023-04-06T11:15:01;3.25;;;1.20;;
35691;SDS011;26978;44.830;-0.674;2023-04-06T11:17:34;2.88;;;0.98;;
35691;SDS011;26978;44.830;-0.674;2023-04-06T11:20:01;5.00;;;1.10;;
35691;SDS011;26978;44.830;-0.674;2023-04-06T11:22:28;2.17;;;0.98;;
35691;SDS011;26978;44.830;-0.674;2023-04-06T11:25:04;3.63;;;1.17;;
35691;SDS011;26978;44.830;-0.674;2023-04-06T11:27:31;1.67;;;1.20;;
35691;SDS011;26978;44.830;-0.674;2023-04-06T11:29:59;3.53;;;1.60;;
35691;SDS011;26978;44.830;-0.674;2023-04-06T11:32:25;2.08;;;1.13;;
35691;SDS011;26978;44.830;-0.674;2023-04-06T11:34:51;2.15;;;0.98;;
35691;SDS011;26978;44.830;-0.674;2023-04-06T11:37:16;2.45;;;1.10;;
35691;SDS011;26978;44.830;-0.674;2023-04-06T11:39:52;5.43;;;1.23;;
35691;SDS011;26978;44.830;-0.674;2023-04-06T11:42:23;4.15;;;1.48;;
35691;SDS011;26978;44.830;-0.674;2023-04-06T11:44:51;2.47;;;1.38;;
35691;SDS011;26978;44.830;-0.674;2023-04-06T11:47:19;4.22;;;1.30;;
35691;SDS011;26978;44.830;-0.674;2023-04-06T11:49:45;1.35;;;1.13;;
35691;SDS011;26978;44.830;-0.674;2023-04-06T11:54:42;2.00;;;0.95;;
35691;SDS011;26978;44.830;-0.674;2023-04-06T11:57:07;2.30;;;0.88;;
35691;SDS011;26978;44.830;-0.674;2023-04-06T11:59:34;3.53;;;1.38;;
35691;SDS011;26978;44.830;-0.674;2023-04-06T12:02:03;2.95;;;1.00;;
35691;SDS011;26978;44.830;-0.674;2023-04-06T12:04:30;4.68;;;1.17;;
35691;SDS011;26978;44.830;-0.674;2023-04-06T12:06:55;1.15;;;1.00;;
35691;SDS011;26978;44.830;-0.674;2023-04-06T12:09:21;3.88;;;1.08;;
35691;SDS011;26978;44.830;-0.674;2023-04-06T12:11:47;3.58;;;1.23;;
35691;SDS011;26978;44.830;-0.674;2023-04-06T12:14:12;4.10;;;1.17;;
35691;SDS011;26978;44.830;-0.674;2023-04-06T12:16:38;9.95;;;1.20;;
35691;SDS011;26978;44.830;-0.674;2023-04-06T12:19:04;5.10;;;1.30;;
35691;SDS011;26978;44.830;-0.674;2023-04-06T12:21:30;3.17;;;1.00;;
35691;SDS011;26978;44.830;-0.674;2023-04-06T12:23:59;4.97;;;1.20;;
35691;SDS011;26978;44.830;-0.674;2023-04-06T12:26:28;3.80;;;1.20;;
35691;SDS011;26978;44.830;-0.674;2023-04-06T12:28:54;4.00;;;1.20;;
35691;SDS011;26978;44.830;-0.674;2023-04-06T12:31:21;1.98;;;1.10;;
35691;SDS011;26978;44.830;-0.674;2023-04-06T12:33:47;2.30;;;1.05;;
35691;SDS011;26978;44.830;-0.674;2023-04-06T12:36:16;3.65;;;1.17;;
35691;SDS011;26978;44.830;-0.674;2023-04-06T12:38:48;2.30;;;0.80;;
35691;SDS011;26978;44.830;-0.674;2023-04-06T12:41:15;4.00;;;1.13;;
35691;SDS011;26978;44.830;-0.674;2023-04-06T12:43:42;4.82;;;1.02;;
35691;SDS011;26978;44.830;-0.674;2023-04-06T12:46:08;3.60;;;1.20;;
35691;SDS011;26978;44.830;-0.674;2023-04-06T12:48:35;4.35;;;0.90;;
35691;SDS011;26978;44.830;-0.674;2023-04-06T12:51:02;3.30;;;1.52;;
35691;SDS011;26978;44.830;-0.674;2023-04-06T12:53:29;2.75;;;1.10;;
35691;SDS011;26978;44.830;-0.674;2023-04-06T12:55:55;1.73;;;1.00;;
35691;SDS011;26978;44.830;-0.674;2023-04-06T12:58:22;4.07;;;0.80;;
35691;SDS011;26978;44.830;-0.674;2023-04-06T13:06:19;5.00;;;1.20;;
35691;SDS011;26978;44.830;-0.674;2023-04-06T13:08:45;7.43;;;1.05;;
35691;SDS011;26978;44.830;-0.674;2023-04-06T13:11:12;4.95;;;1.15;;
35691;SDS011;26978;44.830;-0.674;2023-04-06T13:13:38;4.22;;;1.23;;
35691;SDS011;26978;44.830;-0.674;2023-04-06T13:16:04;2.60;;;0.93;;
35691;SDS011;26978;44.830;-0.674;2023-04-06T13:18:33;2.85;;;1.10;;
35691;SDS011;26978;44.830;-0.674;2023-04-06T13:20:59;3.55;;;1.05;;
35691;SDS011;26978;44.830;-0.674;2023-04-06T13:23:25;2.33;;;1.00;;
35691;SDS011;26978;44.830;-0.674;2023-04-06T13:26:01;5.32;;;0.90;;
35691;SDS011;26978;44.830;-0.674;2023-04-06T13:28:29;7.53;;;1.13;;
35691;SDS011;26978;44.830;-0.674;2023-04-06T13:30:57;3.30;;;0.85;;
35691;SDS011;26978;44.830;-0.674;2023-04-06T13:33:24;2.08;;;1.20;;
35691;SDS011;26978;44.830;-0.674;2023-04-06T13:35:51;1.63;;;1.17;;
35691;SDS011;26978;44.830;-0.674;2023-04-06T13:38:16;5.38;;;0.90;;
35691;SDS011;26978;44.830;-0.674;2023-04-06T13:40:42;5.80;;;1.70;;
35691;SDS011;26978;44.830;-0.674;2023-04-06T13:43:08;1.05;;;0.70;;
35691;SDS011;26978;44.830;-0.674;2023-04-06T13:45:34;4.28;;;0.90;;
35691;SDS011;26978;44.830;-0.674;2023-04-06T13:48:00;2.65;;;0.80;;
35691;SDS011;26978;44.830;-0.674;2023-04-06T13:50:26;2.95;;;0.88;;
35691;SDS011;26978;44.830;-0.674;2023-04-06T13:52:52;2.80;;;0.70;;
35691;SDS011;26978;44.830;-0.674;2023-04-06T13:55:18;8.57;;;1.13;;
35691;SDS011;26978;44.830;-0.674;2023-04-06T13:57:44;2.08;;;0.85;;
35691;SDS011;26978;44.830;-0.674;2023-04-06T14:00:09;3.67;;;1.13;;
35691;SDS011;26978;44.830;-0.674;2023-04-06T14:02:37;2.17;;;0.82;;
35691;SDS011;26978;44.830;-0.674;2023-04-06T14:05:06;3.50;;;1.05;;
35691;SDS011;26978;44.830;-0.674;2023-04-06T14:07:32;3.63;;;1.33;;
35691;SDS011;26978;44.830;-0.674;2023-04-06T14:09:57;2.00;;;0.80;;
35691;SDS011;26978;44.830;-0.674;2023-04-06T14:12:23;4.55;;;0.80;;
35691;SDS011;26978;44.830;-0.674;2023-04-06T14:14:49;3.47;;;1.00;;
35691;SDS011;26978;44.830;-0.674;2023-04-06T14:17:15;3.20;;;0.63;;
35691;SDS011;26978;44.830;-0.674;2023-04-06T14:19:40;4.03;;;0.90;;
35691;SDS011;26978;44.830;-0.674;2023-04-06T14:22:06;4.93;;;0.63;;
35691;SDS011;26978;44.830;-0.674;2023-04-06T14:24:33;1.50;;;0.55;;
35691;SDS011;26978;44.830;-0.674;2023-04-06T14:27:00;1.45;;;0.70;;
35691;SDS011;26978;44.830;-0.674;2023-04-06T14:29:27;4.57;;;0.80;;
35691;SDS011;26978;44.830;-0.674;2023-04-06T14:31:52;0.88;;;0.47;;
35691;SDS011;26978;44.830;-0.674;2023-04-06T14:34:24;3.45;;;0.70;;
35691;SDS011;26978;44.830;-0.674;2023-04-06T14:36:50;2.45;;;0.60;;